sensor_id;sensor_type;location;lat;lon;timestamp;pressure;altitude;pressure_sealevel;temperature
80422;BMP280;69763;50.182;9.144;2023-12-04T00:00:01;100284.88;;;-5.63
80422;BMP280;69763;50.182;9.144;2023-12-04T00:02:27;100283.41;;;-5.64
80422;BMP280;69763;50.182;9.144;2023-12-04T00:04:52;100278.06;;;-5.61
80422;BMP280;69763;50.182;9.144;2023-12-04T00:07:17;100275.03;;;-5.59
80422;BMP280;69763;50.182;9.144;2023-12-04T00:09:43;100276.94;;;-5.60
80422;BMP280;69763;50.182;9.144;2023-12-04T00:12:09;100267.13;;;-5.59
80422;BMP280;69763;50.182;9.144;2023-12-04T00:14:35;100258.03;;;-5.54
80422;BMP280;69763;50.182;9.144;2023-12-04T00:17:00;100256.13;;;-5.50
80422;BMP280;69763;50.182;9.144;2023-12-04T00:19:25;100245.94;;;-5.52
80422;BMP280;69763;50.182;9.144;2023-12-04T00:21:51;100245.53;;;-5.47
80422;BMP280;69763;50.182;9.144;2023-12-04T00:24:16;100244.03;;;-5.48
80422;BMP280;69763;50.182;9.144;2023-12-04T00:26:41;100238.41;;;-5.53
80422;BMP280;69763;50.182;9.144;2023-12-04T00:29:08;100232.72;;;-5.52
80422;BMP280;69763;50.182;9.144;2023-12-04T00:31:33;100233.44;;;-5.44
80422;BMP280;69763;50.182;9.144;2023-12-04T00:33:59;100230.00;;;-5.38
80422;BMP280;69763;50.182;9.144;2023-12-04T00:36:24;100228.47;;;-5.35
80422;BMP280;69763;50.182;9.144;2023-12-04T00:38:49;100213.72;;;-5.33
80422;BMP280;69763;50.182;9.144;2023-12-04T00:41:15;100206.91;;;-5.30
80422;BMP280;69763;50.182;9.144;2023-12-04T00:43:40;100203.88;;;-5.29
80422;BMP280;69763;50.182;9.144;2023-12-04T00:46:07;100204.25;;;-5.30
80422;BMP280;69763;50.182;9.144;2023-12-04T00:48:32;100196.69;;;-5.28
80422;BMP280;69763;50.182;9.144;2023-12-04T00:50:58;100198.56;;;-5.29
80422;BMP280;69763;50.182;9.144;2023-12-04T00:53:23;100193.28;;;-5.29
80422;BMP280;69763;50.182;9.144;2023-12-04T00:55:49;100195.25;;;-5.36
80422;BMP280;69763;50.182;9.144;2023-12-04T00:58:14;100193.06;;;-5.45
80422;BMP280;69763;50.182;9.144;2023-12-04T01:00:39;100198.41;;;-5.52
80422;BMP280;69763;50.182;9.144;2023-12-04T01:03:06;100193.88;;;-5.55
80422;BMP280;69763;50.182;9.144;2023-12-04T01:05:31;100189.81;;;-5.63
80422;BMP280;69763;50.182;9.144;2023-12-04T01:07:57;100185.00;;;-5.72
80422;BMP280;69763;50.182;9.144;2023-12-04T01:10:22;100189.94;;;-5.77
80422;BMP280;69763;50.182;9.144;2023-12-04T01:12:47;100175.66;;;-5.87
80422;BMP280;69763;50.182;9.144;2023-12-04T01:15:13;100171.97;;;-6.00
80422;BMP280;69763;50.182;9.144;2023-12-04T01:17:38;100166.06;;;-6.15
80422;BMP280;69763;50.182;9.144;2023-12-04T01:20:06;100169.50;;;-6.25
80422;BMP280;69763;50.182;9.144;2023-12-04T01:22:32;100158.19;;;-6.22
80422;BMP280;69763;50.182;9.144;2023-12-04T01:24:57;100158.22;;;-6.29
80422;BMP280;69763;50.182;9.144;2023-12-04T01:27:22;100151.50;;;-6.37
80422;BMP280;69763;50.182;9.144;2023-12-04T01:29:48;100150.34;;;-6.40
80422;BMP280;69763;50.182;9.144;2023-12-04T01:32:13;100144.31;;;-6.33
80422;BMP280;69763;50.182;9.144;2023-12-04T01:34:39;100143.19;;;-6.39
80422;BMP280;69763;50.182;9.144;2023-12-04T01:37:05;100138.69;;;-6.42
80422;BMP280;69763;50.182;9.144;2023-12-04T01:39:31;100134.25;;;-6.56
80422;BMP280;69763;50.182;9.144;2023-12-04T01:41:56;100136.53;;;-6.65
80422;BMP280;69763;50.182;9.144;2023-12-04T01:44:21;100130.50;;;-6.66
80422;BMP280;69763;50.182;9.144;2023-12-04T01:46:47;100132.00;;;-6.61
80422;BMP280;69763;50.182;9.144;2023-12-04T01:49:12;100127.41;;;-6.46
80422;BMP280;69763;50.182;9.144;2023-12-04T01:51:38;100125.13;;;-6.41
80422;BMP280;69763;50.182;9.144;2023-12-04T01:54:06;100116.88;;;-6.46
80422;BMP280;69763;50.182;9.144;2023-12-04T01:56:33;100125.13;;;-6.41
80422;BMP280;69763;50.182;9.144;2023-12-04T01:58:59;100119.06;;;-6.38
80422;BMP280;69763;50.182;9.144;2023-12-04T02:01:24;100110.38;;;-6.31
80422;BMP280;69763;50.182;9.144;2023-12-04T02:03:50;100108.88;;;-6.32
80422;BMP280;69763;50.182;9.144;2023-12-04T02:06:16;100115.25;;;-6.26
80422;BMP280;69763;50.182;9.144;2023-12-04T02:08:42;100119.38;;;-6.25
80422;BMP280;69763;50.182;9.144;2023-12-04T02:11:09;100113.75;;;-6.27
80422;BMP280;69763;50.182;9.144;2023-12-04T02:13:34;100104.03;;;-6.37
80422;BMP280;69763;50.182;9.144;2023-12-04T02:16:03;100114.25;;;-6.50
80422;BMP280;69763;50.182;9.144;2023-12-04T02:18:29;100117.66;;;-6.60
80422;BMP280;69763;50.182;9.144;2023-12-04T02:20:55;100111.28;;;-6.63
80422;BMP280;69763;50.182;9.144;2023-12-04T02:23:20;100109.03;;;-6.64
80422;BMP280;69763;50.182;9.144;2023-12-04T02:25:47;100098.94;;;-6.73
80422;BMP280;69763;50.182;9.144;2023-12-04T02:28:14;100104.25;;;-6.84
80422;BMP280;69763;50.182;9.144;2023-12-04T02:30:43;100097.88;;;-6.97
80422;BMP280;69763;50.182;9.144;2023-12-04T02:33:11;100100.88;;;-6.95
80422;BMP280;69763;50.182;9.144;2023-12-04T02:35:37;100109.16;;;-6.96
80422;BMP280;69763;50.182;9.144;2023-12-04T02:38:05;100101.28;;;-7.00
80422;BMP280;69763;50.182;9.144;2023-12-04T02:40:31;100095.59;;;-6.95
80422;BMP280;69763;50.182;9.144;2023-12-04T02:42:57;100091.03;;;-6.80
80422;BMP280;69763;50.182;9.144;2023-12-04T02:45:23;100100.06;;;-6.77
80422;BMP280;69763;50.182;9.144;2023-12-04T02:47:48;100097.44;;;-6.77
80422;BMP280;69763;50.182;9.144;2023-12-04T02:50:14;100097.09;;;-6.83
80422;BMP280;69763;50.182;9.144;2023-12-04T02:52:39;100082.44;;;-6.88
80422;BMP280;69763;50.182;9.144;2023-12-04T02:55:05;100091.09;;;-6.98
80422;BMP280;69763;50.182;9.144;2023-12-04T02:57:31;100082.84;;;-7.03
80422;BMP280;69763;50.182;9.144;2023-12-04T02:59:57;100078.72;;;-7.04
80422;BMP280;69763;50.182;9.144;2023-12-04T03:02:23;100083.22;;;-7.01
80422;BMP280;69763;50.182;9.144;2023-12-04T03:04:48;100074.94;;;-6.93
80422;BMP280;69763;50.182;9.144;2023-12-04T03:07:13;100070.69;;;-6.76
80422;BMP280;69763;50.182;9.144;2023-12-04T03:09:39;100062.41;;;-6.71
80422;BMP280;69763;50.182;9.144;2023-12-04T03:12:05;100059.41;;;-6.80
80422;BMP280;69763;50.182;9.144;2023-12-04T03:14:30;100059.81;;;-6.85
80422;BMP280;69763;50.182;9.144;2023-12-04T03:16:57;100058.66;;;-6.73
80422;BMP280;69763;50.182;9.144;2023-12-04T03:19:22;100062.78;;;-6.72
80422;BMP280;69763;50.182;9.144;2023-12-04T03:21:48;100054.16;;;-6.80
80422;BMP280;69763;50.182;9.144;2023-12-04T03:24:13;100053.44;;;-6.88
80422;BMP280;69763;50.182;9.144;2023-12-04T03:26:39;100047.81;;;-6.97
80422;BMP280;69763;50.182;9.144;2023-12-04T03:29:05;100047.84;;;-7.04
80422;BMP280;69763;50.182;9.144;2023-12-04T03:31:30;100045.19;;;-7.00
80422;BMP280;69763;50.182;9.144;2023-12-04T03:33:57;100039.53;;;-6.92
80422;BMP280;69763;50.182;9.144;2023-12-04T03:36:22;100036.84;;;-6.85
80422;BMP280;69763;50.182;9.144;2023-12-04T03:38:47;100031.16;;;-6.72
80422;BMP280;69763;50.182;9.144;2023-12-04T03:41:13;100026.47;;;-6.51
80422;BMP280;69763;50.182;9.144;2023-12-04T03:43:39;100021.84;;;-6.32
80422;BMP280;69763;50.182;9.144;2023-12-04T03:46:04;100010.06;;;-6.21
80422;BMP280;69763;50.182;9.144;2023-12-04T03:48:30;100011.06;;;-6.07
80422;BMP280;69763;50.182;9.144;2023-12-04T03:50:56;100019.66;;;-6.00
80422;BMP280;69763;50.182;9.144;2023-12-04T03:53:22;100002.28;;;-5.94
80422;BMP280;69763;50.182;9.144;2023-12-04T03:55:47;100005.16;;;-5.81
80422;BMP280;69763;50.182;9.144;2023-12-04T03:58:13;100005.16;;;-5.81
80422;BMP280;69763;50.182;9.144;2023-12-04T04:00:38;99998.72;;;-5.80
80422;BMP280;69763;50.182;9.144;2023-12-04T04:03:03;99992.31;;;-5.79
80422;BMP280;69763;50.182;9.144;2023-12-04T04:05:29;99988.47;;;-5.71
80422;BMP280;69763;50.182;9.144;2023-12-04T04:07:56;99987.38;;;-5.73
80422;BMP280;69763;50.182;9.144;2023-12-04T04:10:21;99977.56;;;-5.73
80422;BMP280;69763;50.182;9.144;2023-12-04T04:12:46;99971.84;;;-5.68
80422;BMP280;69763;50.182;9.144;2023-12-04T04:15:12;99966.16;;;-5.66
80422;BMP280;69763;50.182;9.144;2023-12-04T04:17:37;99956.34;;;-5.66
80422;BMP280;69763;50.182;9.144;2023-12-04T04:20:03;99951.47;;;-5.67
80422;BMP280;69763;50.182;9.144;2023-12-04T04:22:29;99945.09;;;-5.70
80422;BMP280;69763;50.182;9.144;2023-12-04T04:24:55;99948.06;;;-5.68
80422;BMP280;69763;50.182;9.144;2023-12-04T04:27:21;99954.38;;;-5.62
80422;BMP280;69763;50.182;9.144;2023-12-04T04:29:46;99953.91;;;-5.53
80422;BMP280;69763;50.182;9.144;2023-12-04T04:32:11;99948.19;;;-5.48
80422;BMP280;69763;50.182;9.144;2023-12-04T04:34:37;99950.16;;;-5.56
80422;BMP280;69763;50.182;9.144;2023-12-04T04:37:02;99943.03;;;-5.59
80422;BMP280;69763;50.182;9.144;2023-12-04T04:39:28;99938.41;;;-5.51
80422;BMP280;69763;50.182;9.144;2023-12-04T04:41:54;99943.66;;;-5.47
80422;BMP280;69763;50.182;9.144;2023-12-04T04:44:20;99931.00;;;-5.33
80422;BMP280;69763;50.182;9.144;2023-12-04T04:46:45;99939.56;;;-5.21
80422;BMP280;69763;50.182;9.144;2023-12-04T04:49:10;99935.25;;;-5.12
80422;BMP280;69763;50.182;9.144;2023-12-04T04:51:36;99944.97;;;-5.05
80422;BMP280;69763;50.182;9.144;2023-12-04T04:54:01;99940.03;;;-5.03
80422;BMP280;69763;50.182;9.144;2023-12-04T04:56:26;99942.22;;;-4.98
80422;BMP280;69763;50.182;9.144;2023-12-04T04:58:53;99949.75;;;-4.97
80422;BMP280;69763;50.182;9.144;2023-12-04T05:01:19;99947.16;;;-5.00
80422;BMP280;69763;50.182;9.144;2023-12-04T05:03:44;99955.47;;;-5.02
80422;BMP280;69763;50.182;9.144;2023-12-04T05:06:09;99947.75;;;-5.12
80422;BMP280;69763;50.182;9.144;2023-12-04T05:08:35;99949.81;;;-5.27
80422;BMP280;69763;50.182;9.144;2023-12-04T05:11:00;99956.28;;;-5.32
80422;BMP280;69763;50.182;9.144;2023-12-04T05:13:26;99949.25;;;-5.42
80422;BMP280;69763;50.182;9.144;2023-12-04T05:15:52;99951.59;;;-5.51
80422;BMP280;69763;50.182;9.144;2023-12-04T05:18:18;99944.16;;;-5.60
80422;BMP280;69763;50.182;9.144;2023-12-04T05:20:43;99945.31;;;-5.61
80422;BMP280;69763;50.182;9.144;2023-12-04T05:23:08;99942.69;;;-5.61
80422;BMP280;69763;50.182;9.144;2023-12-04T05:25:34;99939.94;;;-5.53
80422;BMP280;69763;50.182;9.144;2023-12-04T05:27:59;99947.81;;;-5.50
80422;BMP280;69763;50.182;9.144;2023-12-04T05:30:24;99936.78;;;-5.41
80422;BMP280;69763;50.182;9.144;2023-12-04T05:32:51;99938.09;;;-5.26
80422;BMP280;69763;50.182;9.144;2023-12-04T05:35:16;99940.63;;;-5.15
80422;BMP280;69763;50.182;9.144;2023-12-04T05:37:42;99941.28;;;-5.11
80422;BMP280;69763;50.182;9.144;2023-12-04T05:40:09;99937.78;;;-5.05
80422;BMP280;69763;50.182;9.144;2023-12-04T05:42:34;99940.72;;;-4.99
80422;BMP280;69763;50.182;9.144;2023-12-04T05:44:59;99939.22;;;-5.00
80422;BMP280;69763;50.182;9.144;2023-12-04T05:47:25;99940.41;;;-5.05
80422;BMP280;69763;50.182;9.144;2023-12-04T05:49:51;99929.97;;;-5.12
80422;BMP280;69763;50.182;9.144;2023-12-04T05:52:17;99924.41;;;-5.17
80422;BMP280;69763;50.182;9.144;2023-12-04T05:54:42;99920.28;;;-5.18
80422;BMP280;69763;50.182;9.144;2023-12-04T05:57:08;99921.00;;;-5.18
80422;BMP280;69763;50.182;9.144;2023-12-04T05:59:33;99907.00;;;-5.15
80422;BMP280;69763;50.182;9.144;2023-12-04T06:01:59;99907.34;;;-5.13
80422;BMP280;69763;50.182;9.144;2023-12-04T06:04:24;99905.31;;;-5.05
80422;BMP280;69763;50.182;9.144;2023-12-04T06:06:51;99901.06;;;-4.99
80422;BMP280;69763;50.182;9.144;2023-12-04T06:09:16;99907.44;;;-4.97
80422;BMP280;69763;50.182;9.144;2023-12-04T06:11:42;99899.50;;;-4.97
80422;BMP280;69763;50.182;9.144;2023-12-04T06:14:07;99903.28;;;-4.94
80422;BMP280;69763;50.182;9.144;2023-12-04T06:16:33;99901.72;;;-4.91
80422;BMP280;69763;50.182;9.144;2023-12-04T06:18:58;99900.94;;;-4.88
80422;BMP280;69763;50.182;9.144;2023-12-04T06:21:23;99892.94;;;-4.85
80422;BMP280;69763;50.182;9.144;2023-12-04T06:23:51;99892.13;;;-4.82
80422;BMP280;69763;50.182;9.144;2023-12-04T06:26:17;99889.50;;;-4.82
80422;BMP280;69763;50.182;9.144;2023-12-04T06:28:43;99888.78;;;-4.86
80422;BMP280;69763;50.182;9.144;2023-12-04T06:31:09;99883.97;;;-4.91
80422;BMP280;69763;50.182;9.144;2023-12-04T06:33:35;99882.06;;;-4.90
80422;BMP280;69763;50.182;9.144;2023-12-04T06:36:01;99879.03;;;-4.89
80422;BMP280;69763;50.182;9.144;2023-12-04T06:38:31;99881.53;;;-5.05
80422;BMP280;69763;50.182;9.144;2023-12-04T06:40:59;99871.63;;;-5.21
80422;BMP280;69763;50.182;9.144;2023-12-04T06:43:25;99876.91;;;-5.25
80422;BMP280;69763;50.182;9.144;2023-12-04T06:45:51;99876.50;;;-5.19
80422;BMP280;69763;50.182;9.144;2023-12-04T06:48:16;99872.69;;;-5.18
80422;BMP280;69763;50.182;9.144;2023-12-04T06:50:42;99874.25;;;-5.21
80422;BMP280;69763;50.182;9.144;2023-12-04T06:53:07;99873.44;;;-5.18
80422;BMP280;69763;50.182;9.144;2023-12-04T06:55:32;99874.88;;;-5.13
80422;BMP280;69763;50.182;9.144;2023-12-04T06:57:59;99894.44;;;-5.11
80422;BMP280;69763;50.182;9.144;2023-12-04T07:00:24;99884.56;;;-5.07
80422;BMP280;69763;50.182;9.144;2023-12-04T07:02:50;99881.13;;;-5.04
80422;BMP280;69763;50.182;9.144;2023-12-04T07:05:15;99872.00;;;-4.99
80422;BMP280;69763;50.182;9.144;2023-12-04T07:07:41;99882.88;;;-4.94
80422;BMP280;69763;50.182;9.144;2023-12-04T07:10:07;99882.06;;;-4.90
80422;BMP280;69763;50.182;9.144;2023-12-04T07:12:32;99883.91;;;-4.87
80422;BMP280;69763;50.182;9.144;2023-12-04T07:14:59;99879.38;;;-4.87
80422;BMP280;69763;50.182;9.144;2023-12-04T07:17:24;99874.53;;;-4.92
80422;BMP280;69763;50.182;9.144;2023-12-04T07:19:50;99871.84;;;-4.88
80422;BMP280;69763;50.182;9.144;2023-12-04T07:22:15;99869.19;;;-4.88
80422;BMP280;69763;50.182;9.144;2023-12-04T07:24:40;99871.16;;;-4.93
80422;BMP280;69763;50.182;9.144;2023-12-04T07:27:06;99871.72;;;-5.05
80422;BMP280;69763;50.182;9.144;2023-12-04T07:29:31;99887.81;;;-5.19
80422;BMP280;69763;50.182;9.144;2023-12-04T07:31:58;99874.66;;;-5.22
80422;BMP280;69763;50.182;9.144;2023-12-04T07:34:23;99887.88;;;-5.22
80422;BMP280;69763;50.182;9.144;2023-12-04T07:36:49;99886.03;;;-5.29
80422;BMP280;69763;50.182;9.144;2023-12-04T07:39:14;99886.56;;;-5.38
80422;BMP280;69763;50.182;9.144;2023-12-04T07:41:39;99866.97;;;-5.40
80422;BMP280;69763;50.182;9.144;2023-12-04T07:44:05;99852.22;;;-5.38
80422;BMP280;69763;50.182;9.144;2023-12-04T07:46:30;99858.13;;;-5.30
80422;BMP280;69763;50.182;9.144;2023-12-04T07:48:57;99866.06;;;-5.30
80422;BMP280;69763;50.182;9.144;2023-12-04T07:51:22;99858.75;;;-5.19
80422;BMP280;69763;50.182;9.144;2023-12-04T07:53:47;99853.31;;;-5.12
80422;BMP280;69763;50.182;9.144;2023-12-04T07:56:13;99844.06;;;-5.00
80422;BMP280;69763;50.182;9.144;2023-12-04T07:58:38;99835.91;;;-4.86
80422;BMP280;69763;50.182;9.144;2023-12-04T08:01:04;99827.06;;;-4.76
80422;BMP280;69763;50.182;9.144;2023-12-04T08:03:29;99828.31;;;-4.60
80422;BMP280;69763;50.182;9.144;2023-12-04T08:05:56;99820.81;;;-4.46
80422;BMP280;69763;50.182;9.144;2023-12-04T08:08:21;99801.69;;;-4.34
80422;BMP280;69763;50.182;9.144;2023-12-04T08:10:47;99799.25;;;-4.24
80422;BMP280;69763;50.182;9.144;2023-12-04T08:13:12;99775.22;;;-4.14
80422;BMP280;69763;50.182;9.144;2023-12-04T08:15:38;99783.31;;;-4.05
80422;BMP280;69763;50.182;9.144;2023-12-04T08:18:03;99780.09;;;-3.96
80422;BMP280;69763;50.182;9.144;2023-12-04T08:20:29;99771.25;;;-3.89
80422;BMP280;69763;50.182;9.144;2023-12-04T08:22:55;99764.69;;;-3.81
80422;BMP280;69763;50.182;9.144;2023-12-04T08:25:21;99755.81;;;-3.75
80422;BMP280;69763;50.182;9.144;2023-12-04T08:27:46;99751.53;;;-3.69
80422;BMP280;69763;50.182;9.144;2023-12-04T08:30:12;99745.31;;;-3.62
80422;BMP280;69763;50.182;9.144;2023-12-04T08:32:37;99732.31;;;-3.56
80422;BMP280;69763;50.182;9.144;2023-12-04T08:35:04;99733.69;;;-3.52
80422;BMP280;69763;50.182;9.144;2023-12-04T08:37:30;99752.47;;;-3.46
80422;BMP280;69763;50.182;9.144;2023-12-04T08:39:56;99765.53;;;-3.39
80422;BMP280;69763;50.182;9.144;2023-12-04T08:42:22;99764.66;;;-3.33
80422;BMP280;69763;50.182;9.144;2023-12-04T08:44:47;99756.28;;;-3.31
80422;BMP280;69763;50.182;9.144;2023-12-04T08:47:12;99758.53;;;-3.29
80422;BMP280;69763;50.182;9.144;2023-12-04T08:49:39;99751.22;;;-3.25
80422;BMP280;69763;50.182;9.144;2023-12-04T08:52:05;99751.03;;;-3.18
80422;BMP280;69763;50.182;9.144;2023-12-04T08:54:30;99753.00;;;-3.06
80422;BMP280;69763;50.182;9.144;2023-12-04T08:56:57;99748.56;;;-2.96
80422;BMP280;69763;50.182;9.144;2023-12-04T08:59:22;99751.44;;;-2.91
80422;BMP280;69763;50.182;9.144;2023-12-04T09:01:48;99743.63;;;-2.82
80422;BMP280;69763;50.182;9.144;2023-12-04T09:04:13;99737.28;;;-2.72
80422;BMP280;69763;50.182;9.144;2023-12-04T09:06:38;99737.81;;;-2.64
80422;BMP280;69763;50.182;9.144;2023-12-04T09:09:04;99735.06;;;-2.60
80422;BMP280;69763;50.182;9.144;2023-12-04T09:11:29;99725.63;;;-2.61
80422;BMP280;69763;50.182;9.144;2023-12-04T09:13:56;99729.34;;;-2.59
80422;BMP280;69763;50.182;9.144;2023-12-04T09:16:21;99723.94;;;-2.55
80422;BMP280;69763;50.182;9.144;2023-12-04T09:18:47;99717.22;;;-2.47
80422;BMP280;69763;50.182;9.144;2023-12-04T09:21:12;99709.50;;;-2.42
80422;BMP280;69763;50.182;9.144;2023-12-04T09:23:37;99707.59;;;-2.28
80422;BMP280;69763;50.182;9.144;2023-12-04T09:26:03;99716.75;;;-2.17
80422;BMP280;69763;50.182;9.144;2023-12-04T09:28:29;99700.91;;;-2.08
80422;BMP280;69763;50.182;9.144;2023-12-04T09:30:55;99706.28;;;-1.86
80422;BMP280;69763;50.182;9.144;2023-12-04T09:33:21;99717.06;;;-1.68
80422;BMP280;69763;50.182;9.144;2023-12-04T09:35:46;99708.53;;;-1.62
80422;BMP280;69763;50.182;9.144;2023-12-04T09:38:12;99712.13;;;-1.56
80422;BMP280;69763;50.182;9.144;2023-12-04T09:40:37;99718.13;;;-1.43
80422;BMP280;69763;50.182;9.144;2023-12-04T09:43:02;99715.81;;;-1.19
80422;BMP280;69763;50.182;9.144;2023-12-04T09:45:28;99710.78;;;-0.95
80422;BMP280;69763;50.182;9.144;2023-12-04T09:47:56;99704.59;;;-0.92
80422;BMP280;69763;50.182;9.144;2023-12-04T09:50:21;99703.53;;;-0.95
80422;BMP280;69763;50.182;9.144;2023-12-04T09:52:47;99704.56;;;-1.02
80422;BMP280;69763;50.182;9.144;2023-12-04T09:55:14;99703.19;;;-1.06
80422;BMP280;69763;50.182;9.144;2023-12-04T09:57:40;99706.97;;;-1.16
80422;BMP280;69763;50.182;9.144;2023-12-04T10:00:07;99698.72;;;-1.31
80422;BMP280;69763;50.182;9.144;2023-12-04T10:02:34;99708.75;;;-1.35
80422;BMP280;69763;50.182;9.144;2023-12-04T10:05:00;99707.56;;;-1.34
80422;BMP280;69763;50.182;9.144;2023-12-04T10:07:26;99700.66;;;-1.32
80422;BMP280;69763;50.182;9.144;2023-12-04T10:09:51;99700.09;;;-1.26
80422;BMP280;69763;50.182;9.144;2023-12-04T10:12:19;99699.03;;;-1.29
80422;BMP280;69763;50.182;9.144;2023-12-04T10:14:44;99692.66;;;-1.32
80422;BMP280;69763;50.182;9.144;2023-12-04T10:17:15;99670.78;;;-1.36
80422;BMP280;69763;50.182;9.144;2023-12-04T10:19:41;99675.91;;;-1.41
80422;BMP280;69763;50.182;9.144;2023-12-04T10:22:08;99672.03;;;-1.49
80422;BMP280;69763;50.182;9.144;2023-12-04T10:24:34;99668.75;;;-1.53
80422;BMP280;69763;50.182;9.144;2023-12-04T10:27:00;99664.59;;;-1.54
80422;BMP280;69763;50.182;9.144;2023-12-04T10:29:30;99660.16;;;-1.57
80422;BMP280;69763;50.182;9.144;2023-12-04T10:32:04;99658.91;;;-1.66
80422;BMP280;69763;50.182;9.144;2023-12-04T10:34:30;99663.63;;;-1.70
80422;BMP280;69763;50.182;9.144;2023-12-04T10:36:55;99654.72;;;-1.76
80422;BMP280;69763;50.182;9.144;2023-12-04T10:39:22;99649.09;;;-1.78
80422;BMP280;69763;50.182;9.144;2023-12-04T10:41:59;99653.22;;;-1.77
80422;BMP280;69763;50.182;9.144;2023-12-04T10:44:24;99641.44;;;-1.76
80422;BMP280;69763;50.182;9.144;2023-12-04T10:46:50;99645.88;;;-1.73
80422;BMP280;69763;50.182;9.144;2023-12-04T10:49:15;99649.91;;;-1.68
80422;BMP280;69763;50.182;9.144;2023-12-04T10:51:41;99646.97;;;-1.61
80422;BMP280;69763;50.182;9.144;2023-12-04T10:54:06;99642.47;;;-1.51
80422;BMP280;69763;50.182;9.144;2023-12-04T10:56:36;99652.97;;;-1.48
80422;BMP280;69763;50.182;9.144;2023-12-04T10:59:03;99669.72;;;-1.38
80422;BMP280;69763;50.182;9.144;2023-12-04T11:01:30;99684.16;;;-1.26
80422;BMP280;69763;50.182;9.144;2023-12-04T11:03:59;99684.69;;;-1.10
80422;BMP280;69763;50.182;9.144;2023-12-04T11:06:25;99676.47;;;-1.03
80422;BMP280;69763;50.182;9.144;2023-12-04T11:08:52;99663.47;;;-1.01
80422;BMP280;69763;50.182;9.144;2023-12-04T11:11:24;99656.38;;;-0.94
80422;BMP280;69763;50.182;9.144;2023-12-04T11:13:54;99650.50;;;-0.89
80422;BMP280;69763;50.182;9.144;2023-12-04T11:16:27;99653.47;;;-0.87
80422;BMP280;69763;50.182;9.144;2023-12-04T11:18:56;99648.63;;;-0.80
80422;BMP280;69763;50.182;9.144;2023-12-04T11:21:26;99649.72;;;-0.68
80422;BMP280;69763;50.182;9.144;2023-12-04T11:23:53;99634.06;;;-0.57
80422;BMP280;69763;50.182;9.144;2023-12-04T11:26:19;99626.84;;;-0.47
80422;BMP280;69763;50.182;9.144;2023-12-04T11:28:45;99616.19;;;-0.56
80422;BMP280;69763;50.182;9.144;2023-12-04T11:31:12;99603.31;;;-0.58
80422;BMP280;69763;50.182;9.144;2023-12-04T11:33:38;99583.66;;;-0.51
80422;BMP280;69763;50.182;9.144;2023-12-04T11:36:08;99592.97;;;-0.56
80422;BMP280;69763;50.182;9.144;2023-12-04T11:38:34;99599.63;;;-0.51
80422;BMP280;69763;50.182;9.144;2023-12-04T11:41:00;99591.50;;;-0.48
80422;BMP280;69763;50.182;9.144;2023-12-04T11:43:26;99582.78;;;-0.48
80422;BMP280;69763;50.182;9.144;2023-12-04T11:45:52;99592.38;;;-0.51
80422;BMP280;69763;50.182;9.144;2023-12-04T11:48:22;99602.88;;;-0.38
80422;BMP280;69763;50.182;9.144;2023-12-04T11:50:47;99586.19;;;-0.20
80422;BMP280;69763;50.182;9.144;2023-12-04T11:53:13;99591.38;;;-0.17
80422;BMP280;69763;50.182;9.144;2023-12-04T11:55:39;99598.03;;;-0.03
80422;BMP280;69763;50.182;9.144;2023-12-04T11:58:08;99599.34;;;0.29
80422;BMP280;69763;50.182;9.144;2023-12-04T12:00:35;99607.00;;;0.54
80422;BMP280;69763;50.182;9.144;2023-12-04T12:03:02;99608.13;;;0.71
80422;BMP280;69763;50.182;9.144;2023-12-04T12:05:30;99596.00;;;0.61
80422;BMP280;69763;50.182;9.144;2023-12-04T12:07:55;99593.53;;;0.49
80422;BMP280;69763;50.182;9.144;2023-12-04T12:10:21;99588.38;;;0.36
80422;BMP280;69763;50.182;9.144;2023-12-04T12:12:47;99588.22;;;0.30
80422;BMP280;69763;50.182;9.144;2023-12-04T12:15:12;99581.88;;;0.28
80422;BMP280;69763;50.182;9.144;2023-12-04T12:17:38;99568.97;;;0.35
80422;BMP280;69763;50.182;9.144;2023-12-04T12:20:05;99561.56;;;0.40
80422;BMP280;69763;50.182;9.144;2023-12-04T12:22:32;99544.34;;;0.50
80422;BMP280;69763;50.182;9.144;2023-12-04T12:24:58;99564.94;;;0.49
80422;BMP280;69763;50.182;9.144;2023-12-04T12:27:24;99554.13;;;0.44
80422;BMP280;69763;50.182;9.144;2023-12-04T12:29:50;99547.81;;;0.23
80422;BMP280;69763;50.182;9.144;2023-12-04T12:32:15;99535.69;;;0.22
80422;BMP280;69763;50.182;9.144;2023-12-04T12:34:41;99533.31;;;0.15
80422;BMP280;69763;50.182;9.144;2023-12-04T12:37:06;99530.06;;;0.11
80422;BMP280;69763;50.182;9.144;2023-12-04T12:39:33;99521.78;;;0.09
80422;BMP280;69763;50.182;9.144;2023-12-04T12:41:58;99507.16;;;0.04
80422;BMP280;69763;50.182;9.144;2023-12-04T12:44:24;99497.25;;;-0.05
80422;BMP280;69763;50.182;9.144;2023-12-04T12:46:50;99484.97;;;-0.11
80422;BMP280;69763;50.182;9.144;2023-12-04T12:49:17;99459.25;;;-0.14
80422;BMP280;69763;50.182;9.144;2023-12-04T12:51:42;99449.72;;;-0.06
80422;BMP280;69763;50.182;9.144;2023-12-04T12:54:08;99448.09;;;-0.04
80422;BMP280;69763;50.182;9.144;2023-12-04T12:56:35;99433.22;;;-0.38
80422;BMP280;69763;50.182;9.144;2023-12-04T12:59:00;99415.63;;;-0.62
80422;BMP280;69763;50.182;9.144;2023-12-04T13:01:30;99418.75;;;-0.82
80422;BMP280;69763;50.182;9.144;2023-12-04T13:03:56;99412.53;;;-0.97
80422;BMP280;69763;50.182;9.144;2023-12-04T13:06:21;99420.94;;;-1.08
80422;BMP280;69763;50.182;9.144;2023-12-04T13:08:47;99414.44;;;-1.07
80422;BMP280;69763;50.182;9.144;2023-12-04T13:11:12;99410.91;;;-1.04
80422;BMP280;69763;50.182;9.144;2023-12-04T13:13:39;99416.81;;;-1.00
80422;BMP280;69763;50.182;9.144;2023-12-04T13:16:05;99412.22;;;-1.09
80422;BMP280;69763;50.182;9.144;2023-12-04T13:18:30;99420.38;;;-1.03
80422;BMP280;69763;50.182;9.144;2023-12-04T13:20:55;99410.75;;;-1.10
80422;BMP280;69763;50.182;9.144;2023-12-04T13:23:21;99413.97;;;-1.24
80422;BMP280;69763;50.182;9.144;2023-12-04T13:25:46;99405.06;;;-1.30
80422;BMP280;69763;50.182;9.144;2023-12-04T13:28:11;99395.59;;;-1.40
80422;BMP280;69763;50.182;9.144;2023-12-04T13:30:38;99385.41;;;-1.51
80422;BMP280;69763;50.182;9.144;2023-12-04T13:33:03;99381.66;;;-1.62
80422;BMP280;69763;50.182;9.144;2023-12-04T13:35:29;99379.44;;;-1.73
80422;BMP280;69763;50.182;9.144;2023-12-04T13:37:54;99374.69;;;-1.78
80422;BMP280;69763;50.182;9.144;2023-12-04T13:40:19;99360.03;;;-1.92
80422;BMP280;69763;50.182;9.144;2023-12-04T13:42:45;99351.31;;;-1.92
80422;BMP280;69763;50.182;9.144;2023-12-04T13:45:11;99349.53;;;-1.95
80422;BMP280;69763;50.182;9.144;2023-12-04T13:47:37;99348.34;;;-2.04
80422;BMP280;69763;50.182;9.144;2023-12-04T13:50:04;99347.97;;;-2.15
80422;BMP280;69763;50.182;9.144;2023-12-04T13:52:30;99342.97;;;-2.35
80422;BMP280;69763;50.182;9.144;2023-12-04T13:54:55;99338.78;;;-2.45
80422;BMP280;69763;50.182;9.144;2023-12-04T13:57:20;99327.25;;;-2.51